Pagina principale
METAR-TAF:

METAR-TAF

Aeroporti :

Berna, Svizzera

Aeroporto di Berna

latitudine: 46-55N, longitudine: 007-30E, altezza: 505 m

Osservazione

Il bollettino è stato emesso 24 minuti fa, alle 11:50 UTC
Vento 1 kt da direzioni variabili
Temperature 5°C
Umidità 93%
Pressione 1021 hPa
Visibilità 10 km o più
Poco nuvoloso ad un'altezza di 400 ft
Nubi sparse ad un'altezza di 1500 ft
Nuvoloso ad un'altezza di 4500 ft

METAR: LSZB 191150Z VRB01KT 9999 FEW004 SCT015 BKN045 05/04 Q1021 NOSIG

Ora: 13:14 (12:14 UTC)

Previsione

Il bollettino è stato emesso 49 minuti fa, alle 11:25 UTC
Previsione valida dal 19 alle 12 UTC al 19 alle 21 UTC
Vento 3 kt da direzioni variabili
Visibilità 10 km o più
Nubi sparse ad un'altezza di 1000 ft
Nuvoloso ad un'altezza di 3000 ft
Probabilità 30% :
Temporaneamente
dal 19 alle 12 UTC al 19 alle 14 UTC
rovesci di pioggia

TAF: LSZB 191125Z 1912/1921 VRB03KT 9999 SCT010 BKN030 PROB30 TEMPO 1912/1914 SHRA

Osservazioni e previsioni meteorologiche di più di 4000 aeroporti (messaggi METAR e TAF).

Le stazioni disponibili sono rappresentate dai dischi gialli e rossi sulla carta.

Puntare il mouse per vedere il nome della stazione.

Clicca sopra per visualizzare le osservazioni e previsioni meteorologiche.

Per cambiare la mappa : fare clic sui pulsanti verdi con una croce nera per ingrandire, il pulsante verde con un trattino per diminuire, o sulla freccia verde per le mappe adiacenti.


METAR-TAF: